New Bedford Regional Airport
KEWB : now visible

Airfield :











YOU CAN JOIN US ON...

 
LOGIN :

Register | Disclaimer

   EN    FR    IT 

 









Legend :    VFR   Marginal VFR   IFR   Intensive IFR   Very Intensive IFR
Visi :
Ceiling :
>= 8 km
>= 3000ft
5 to 8 km
1000 to 3000 ft
1500m to 5 km
500 to 1000 ft
800 to 1500m
200 to 500 ft
< 800m
< 200 ft
Symbols :   Thunderstorms  Fog  Heavy snow  Heavy precipitations  Wind > 20 kt






- Airport Elevation : 80 ft
- IATA code : EWB


KEWB - New Bedford Regional

CURRENT METAR :
  • 110453Z AUTO 30007KT 10SM -RA BKN013 BKN019 OVC060 06/04 A3004 RMK AO2 RAB0358 PRESRR SLP173 P0000 T00610039 401500061

EXPIRED METARs :
  • 110442Z AUTO 30004KT 10SM -RA FEW013 BKN027 OVC070 06/04 A3003 RMK AO2 RAB0358 P0000 T00610044
  • 110353Z AUTO 29004KT 10SM OVC060 07/05 A3002 RMK AO2 RAE27 PRESRR SLP164 P0000 T00720050
  • 110253Z VRB05KT 10SM -RA FEW030 BKN055 OVC070 08/05 A2997 RMK AO2 RAE11B40 SLP147 LAST AUGMENTED OBS P0000 60001 T00780050 53024
  • 110243Z 30005KT 10SM -RA SCT025 SCT033 OVC048 08/06 A2996 RMK AO2 RAE11B40 P0000 T00780056
  • 110153Z 33008G22KT 6SM -RA FEW006 OVC015 08/06 A2992 RMK AO2 RAB40 SLP132 P0001 T00830056

TAF N/A



MET'MAP, your aeronautical weather chart ! - Copyright ORBIFLY December 2007 - Disclaimer

ORBIFLY MET'MAP TEAM :

Programming & Development : Alexandra Zaïnal
Concept & original design : Baudouin d'Aumeries
Assistance for programming : Marc-Olivier Méhu
Technical & hardware support : Manuel Goepfert

Contact : metmap@orbifly.com




SOURCES & CREDITS :

   NOAA       Earth
Advisory